Legenda:
Basso (0-210)
Molto Alto (490 - 630)

Moderato (210 - 350)
Estremo (630 - 800)

Alto (350 - 490)
Molto estremo (800+)


 
333.66
Date Temp. (°C) Wind Speed (km/h) Rain (mm) RH Days Since Rain pwsFWI
La previsione è attiva (incluso oggi!), I valori sono sopra la linea rossa.
27/06/21 27.00 12.00 0.00 0.56 21 227.97
26/06/21 27.00 13.00 0.00 0.53 20 234.67
25/06/21 26.00 15.00 0.00 0.65 19 339.98
24/06/21 27.00 13.00 0.00 0.69 18 334.31
23/06/21 26.00 14.00 0.00 0.69 17 329.32
22/06/21 26.40 15.00 0.00 0.68 16 333.66
21/06/21 26.30 17.00 0.00 0.61 15 326.55
20/06/21 30.90 24.00 0.00 0.30 14 315.16
19/06/21 26.20 18.00 0.00 0.75 13 198.79
18/06/21 26.00 16.00 0.00 0.77 12 213.59
17/06/21 25.50 23.00 0.00 0.77 11 278.70
16/06/21 26.40 17.00 0.00 0.77 10 300.33
15/06/21 26.80 16.00 0.00 0.69 9 392.73
14/06/21 26.20 13.00 0.00 0.61 8 394.00
13/06/21 26.70 13.00 0.00 0.49 7 421.22
12/06/21 28.40 21.00 0.00 0.44 6 451.82
11/06/21 26.10 18.00 0.00 0.53 5 360.04
10/06/21 29.40 24.50 0.00 0.40 4 331.38
09/06/21 24.50 17.30 0.00 0.65 3 235.92
08/06/21 25.70 19.40 0.00 0.51 2 218.85
07/06/21 25.80 24.50 0.00 0.52 1 176.97
06/06/21 23.60 14.80 3.90 0.80 0 127.93
05/06/21 23.70 14.80 0.00 0.66 12 205.18
04/06/21 23.00 18.40 0.00 0.75 11 224.69
03/06/21 22.80 17.30 0.00 0.78 10 231.71
02/06/21 23.00 19.40 0.00 0.80 9 248.28
01/06/21 22.20 13.30 0.00 0.70 8 252.50
31/05/21 24.10 20.90 0.00 0.41 7 300.01
30/05/21 22.60 23.40 0.00 0.61 6 330.79
29/05/21 22.50 14.80 0.00 0.58 5 370.46
CumulusUtils Version 2.1.7 © Hans Rottier
Science background here. - NOTE: Behavioural testing still under way!
Prediction courtesy of https://www.yourweather.co.uk/